Saint-Denis, Réunion

17:53 RET le 26 septembre 2016 (GMT +0400)
Rue Songor | | Change Station

Alt. 547 ft 20.92 °S, 55.53 °E | Updated 2 minutes ago

Mostly Cloudy
Nuageux
72.5 ° F
Paraît 73 ° F
N
0.6
Vent Variable Vent de Est
Gusts 2.5 mph

Aujourd'hui
Haut(e) -- | Bas -- ° F
--% Risque de précip.
Hier
Haut(e) -- | Bas -- ° F
Precip. -- pouce
Pression 30.09 pouce
Visibilité 6.2 Miles terrestres
Nuages Nuages épars 2300 ft
Nuageux 2600 ft
Nuageux 4300 ft
indice de chaleur 73 ° F
Point de rosée 66 ° F
Humidité 80%
Précipitations 0.35 pouce
Profondeur de la couche neigeuse Non disponible.
6:03 AM 6:15 PM
Lune descendante, 19% visible
METAR FMEE 261330Z 12005KT 080V170 9999 SCT023 BKN026 BKN043 24/19 Q1019 NOSIG
Pression 30.09 pouce
Visibilité 6.2 Miles terrestres
Nuages Nuages épars 2300 ft
Nuageux 2600 ft
Nuageux 4300 ft
indice de chaleur 73 ° F
Point de rosée 66 ° F
Humidité 80%
Précipitations 0.35 pouce
Profondeur de la couche neigeuse Non disponible.
6:03 AM 6:15 PM
Lune descendante, 19% visible
METAR FMEE 261330Z 12005KT 080V170 9999 SCT023 BKN026 BKN043 24/19 Q1019 NOSIG

10-Day Weather Forecast

No radar image for this location.
×

Almanac

Astronomie

Sep. 26, 2016 Lever Coucher
Temps réel
Crépuscule civil
Crépuscule nautique
Crépuscule astronomique
Lune
Durée de lumière visible
Longueur du jour
Tomorrow will be .
, % of the Moon is Illuminated

Extrêmes aujourd'hui

Country Highs Country Lows

Community

WunderPhotos

Upload Photos

1,941,880 Photos téléchargées !

WunderBlog® & News

Nearby

Qualité de l'air

  Qualité de l'air Indice de la qualité de l'air Polluant
Not available.

Épaisseur de neige

Station Depth Altitude

Activité sismique

Ville Distance Mag. Time & Date
Minimum magnitude displayed is 2.5.

Températures des eaux côtières

Lieu Température

Stations

Stations météo à proximité

Emplacement de la station Température Refroidissement éolien Point de rosée Humidité Vent Precip. Alt. Mise à jour Type